Time;durP1;ratioP1;P1;durP2;ratioP2;P2;SDS_P1;SDS_P2;PMS_P1;PMS_P2;Temp;Humidity;BMP_temperature;BMP_pressure;BME280_temperature;BME280_humidity;BME280_pressure;Samples;Min_cycle;Max_cycle;Signal;HPM_P1;HPM_P2
2022/01/27 00:05:48;;;;;;;81.95;32.42;;;-2.20;99.90;;;;;;5018181;28;20018;-96
2022/01/27 00:08:18;;;;;;;76.72;32.50;;;-2.20;99.90;;;;;;5000473;28;20373;-96
2022/01/27 00:13:32;;;;;;;75.65;31.13;;;-2.20;99.90;;;;;;5017837;28;20030;-96
2022/01/27 00:16:24;;;;;;;78.20;35.08;;;-2.20;99.90;;;;;;5000215;28;20060;-96
2022/01/27 00:18:47;;;;;;;86.38;34.35;;;-2.20;99.90;;;;;;5017217;28;20033;-96
2022/01/27 00:21:15;;;;;;;79.70;34.00;;;-2.20;99.90;;;;;;5000019;28;20054;-96
2022/01/27 00:23:41;;;;;;;81.97;35.17;;;-2.20;99.90;;;;;;5000532;28;20029;-96
2022/01/27 00:26:08;;;;;;;89.05;34.97;;;-2.20;99.90;;;;;;5000287;28;20121;-96
2022/01/27 00:28:34;;;;;;;88.10;35.08;;;-2.10;99.90;;;;;;5000322;28;20050;-96
2022/01/27 00:31:00;;;;;;;88.05;35.42;;;-2.10;99.90;;;;;;5000003;28;20029;-96
2022/01/27 00:33:25;;;;;;;89.75;35.42;;;-2.10;99.90;;;;;;5000132;28;20404;-96
2022/01/27 00:35:51;;;;;;;86.85;34.72;;;-2.10;99.90;;;;;;5000053;28;20030;-96
2022/01/27 00:38:17;;;;;;;88.85;36.58;;;-2.10;99.90;;;;;;4999934;28;20033;-96
2022/01/27 00:40:43;;;;;;;85.75;35.47;;;-2.10;99.90;;;;;;5000077;28;20041;-96
2022/01/27 00:43:09;;;;;;;82.35;34.38;;;-2.10;99.90;;;;;;4999875;28;20026;-96
2022/01/27 00:45:35;;;;;;;89.43;36.25;;;-2.10;99.90;;;;;;4999922;28;20090;-96
2022/01/27 00:48:04;;;;;;;95.55;38.47;;;-2.20;99.90;;;;;;4999833;28;20018;-96
2022/01/27 00:50:32;;;;;;;80.63;33.65;;;-2.20;99.90;;;;;;5000640;28;20049;-96
2022/01/27 00:53:01;;;;;;;84.60;35.75;;;-2.20;99.90;;;;;;4999026;28;20025;-96
2022/01/27 00:55:29;;;;;;;82.32;34.45;;;-2.20;99.90;;;;;;4999682;28;20069;-96
2022/01/27 01:00:41;;;;;;;92.15;36.75;;;-2.30;99.90;;;;;;5017451;28;20030;-96
2022/01/27 01:03:22;;;;;;;85.68;34.75;;;-2.30;99.90;;;;;;4999328;28;20511;-96
2022/01/27 01:06:12;;;;;;;88.45;35.30;;;-2.30;99.90;;;;;;4999451;28;20045;-96
2022/01/27 01:22:04;;;;;;;80.53;33.70;;;-2.30;99.90;;;;;;5016674;28;19943;-96
2022/01/27 01:32:56;;;;;;;91.25;38.97;;;-2.30;99.90;;;;;;5016474;28;20026;-96
2022/01/27 01:35:39;;;;;;;85.57;37.60;;;-2.30;99.90;;;;;;4999452;28;20022;-96
2022/01/27 01:38:05;;;;;;;89.22;38.80;;;-2.30;99.90;;;;;;4998744;28;20029;-96
2022/01/27 01:40:31;;;;;;;99.28;39.47;;;-2.30;99.90;;;;;;4998789;28;20026;-96
2022/01/27 01:42:56;;;;;;;95.55;40.80;;;-2.30;99.90;;;;;;4998656;28;20030;-96
2022/01/27 01:45:24;;;;;;;94.45;38.83;;;-2.40;99.90;;;;;;4998634;28;20018;-96
2022/01/27 01:47:51;;;;;;;93.15;38.08;;;-2.40;99.90;;;;;;4998869;28;20017;-96
2022/01/27 01:50:17;;;;;;;94.13;40.53;;;-2.30;99.90;;;;;;4998642;28;20018;-96
2022/01/27 01:52:44;;;;;;;90.45;37.85;;;-2.30;99.90;;;;;;4998466;28;20037;-96
2022/01/27 01:55:11;;;;;;;90.35;40.38;;;-2.30;99.90;;;;;;4998408;28;20026;-96
2022/01/27 01:57:37;;;;;;;88.80;36.88;;;-2.30;99.90;;;;;;4998491;28;20026;-96
2022/01/27 02:00:08;;;;;;;72.10;33.50;;;-2.30;99.90;;;;;;4998179;28;20036;-96
2022/01/27 02:02:33;;;;;;;73.00;31.40;;;-2.30;99.90;;;;;;4998867;28;20574;-96
2022/01/27 02:04:59;;;;;;;65.90;30.25;;;-2.30;99.90;;;;;;4997414;28;20101;-96
2022/01/27 02:07:57;;;;;;;70.10;31.70;;;-2.30;99.90;;;;;;4998486;28;20117;-96
2022/01/27 02:18:08;;;;;;;56.20;25.20;;;-2.40;99.90;;;;;;5016088;28;20041;-96
2022/01/27 02:20:37;;;;;;;54.83;25.15;;;-2.40;99.90;;;;;;4997746;28;20061;-96
2022/01/27 02:23:07;;;;;;;66.05;26.70;;;-2.40;99.90;;;;;;4998097;28;20581;-96
2022/01/27 02:25:33;;;;;;;62.67;26.45;;;-2.40;99.90;;;;;;4998214;28;20034;-96
2022/01/27 02:27:59;;;;;;;60.55;26.02;;;-2.40;99.90;;;;;;4998166;28;20109;-96
2022/01/27 02:30:26;;;;;;;60.15;25.33;;;-2.40;99.90;;;;;;4998006;28;20022;-96
2022/01/27 02:32:53;;;;;;;61.83;26.77;;;-2.50;99.90;;;;;;4997974;28;20029;-96
2022/01/27 02:35:21;;;;;;;59.85;27.08;;;-2.50;99.90;;;;;;4997686;28;20029;-96
2022/01/27 02:37:47;;;;;;;66.75;29.30;;;-2.50;99.90;;;;;;4997807;28;20026;-96
2022/01/27 02:40:37;;;;;;;68.43;29.33;;;-2.50;99.90;;;;;;4997670;28;20472;-96
2022/01/27 02:43:04;;;;;;;79.00;33.00;;;-2.60;99.90;;;;;;4998059;28;20036;-96
2022/01/27 02:45:45;;;;;;;69.22;30.48;;;-2.60;99.90;;;;;;4997526;28;20029;-96
2022/01/27 02:48:14;;;;;;;71.38;29.77;;;-2.50;99.90;;;;;;4997768;28;20022;-96
2022/01/27 02:50:40;;;;;;;68.18;30.20;;;-2.50;99.90;;;;;;4997725;28;20089;-96
2022/01/27 02:53:10;;;;;;;72.28;31.38;;;-2.50;99.90;;;;;;4997592;28;20121;-96
2022/01/27 02:55:36;;;;;;;74.53;32.83;;;-2.50;99.90;;;;;;4997335;28;20098;-96
2022/01/27 02:58:03;;;;;;;74.05;32.08;;;-2.50;99.90;;;;;;4997404;28;20056;-96
2022/01/27 03:00:30;;;;;;;75.97;33.05;;;-2.50;99.90;;;;;;4997317;28;20022;-96
2022/01/27 03:02:55;;;;;;;76.60;32.95;;;-2.50;99.90;;;;;;4997407;28;20112;-96
2022/01/27 03:05:21;;;;;;;76.20;32.92;;;-2.40;99.90;;;;;;4997325;28;20057;-96
2022/01/27 03:07:48;;;;;;;67.50;30.27;;;-2.40;99.90;;;;;;4997193;28;20045;-96
2022/01/27 03:10:18;;;;;;;75.20;31.50;;;-2.40;99.90;;;;;;4997490;28;20041;-96
2022/01/27 03:12:46;;;;;;;83.43;34.22;;;-2.40;99.90;;;;;;4997195;28;20570;-96
2022/01/27 03:15:13;;;;;;;70.75;31.25;;;-2.40;99.90;;;;;;4997443;28;20098;-96
2022/01/27 03:17:39;;;;;;;72.10;32.22;;;-2.40;99.90;;;;;;4997027;28;20113;-96
2022/01/27 03:20:07;;;;;;;75.45;30.83;;;-2.40;99.90;;;;;;4997692;28;20085;-96
2022/01/27 03:22:33;;;;;;;70.00;30.80;;;-2.40;99.90;;;;;;4996672;28;20054;-96
2022/01/27 03:24:58;;;;;;;77.20;31.83;;;-2.40;99.90;;;;;;4997283;28;20105;-96
2022/01/27 03:27:26;;;;;;;72.25;30.80;;;-2.40;99.90;;;;;;4996919;28;20394;-96
2022/01/27 03:29:52;;;;;;;72.80;31.30;;;-2.40;99.90;;;;;;4997372;28;20093;-96
2022/01/27 03:32:18;;;;;;;64.28;29.55;;;-2.40;99.90;;;;;;4997078;28;20477;-96
2022/01/27 03:34:44;;;;;;;61.67;27.83;;;-2.40;99.90;;;;;;4997019;28;20026;-96
2022/01/27 03:37:10;;;;;;;58.33;27.45;;;-2.50;99.90;;;;;;4996950;28;20033;-96
2022/01/27 03:39:38;;;;;;;62.13;26.88;;;-2.50;99.90;;;;;;4997196;28;20424;-96
2022/01/27 03:42:07;;;;;;;62.50;27.15;;;-2.50;99.90;;;;;;4996981;28;20037;-96
2022/01/27 03:44:33;;;;;;;60.03;25.40;;;-2.60;99.90;;;;;;4996883;28;20182;-96
2022/01/27 03:47:00;;;;;;;57.50;24.02;;;-2.60;99.90;;;;;;4997196;28;20026;-96
2022/01/27 03:49:26;;;;;;;52.80;25.10;;;-2.60;99.90;;;;;;4998013;28;20025;-96
2022/01/27 03:51:52;;;;;;;56.92;27.45;;;-2.60;99.90;;;;;;4997097;28;20468;-96
2022/01/27 03:54:18;;;;;;;51.72;24.65;;;-2.70;99.90;;;;;;4996866;28;20399;-96
2022/01/27 03:56:44;;;;;;;54.72;24.35;;;-2.70;99.90;;;;;;4997006;28;20468;-96
2022/01/27 03:59:10;;;;;;;52.58;24.60;;;-2.70;99.90;;;;;;4996755;28;20038;-96
2022/01/27 04:01:38;;;;;;;52.35;23.55;;;-2.80;99.90;;;;;;4996819;28;20472;-97
2022/01/27 04:04:04;;;;;;;52.10;23.23;;;-2.70;99.90;;;;;;4996686;28;20026;-96
2022/01/27 04:06:35;;;;;;;57.83;25.63;;;-2.70;99.90;;;;;;4996747;28;20519;-96
2022/01/27 04:09:03;;;;;;;79.82;34.15;;;-2.70;99.90;;;;;;4999527;28;20361;-96
2022/01/27 04:11:29;;;;;;;67.25;27.65;;;-2.80;99.90;;;;;;4996867;28;20081;-96
2022/01/27 04:13:55;;;;;;;61.08;26.50;;;-2.80;99.90;;;;;;4996682;28;20030;-96
2022/01/27 04:16:21;;;;;;;60.42;27.30;;;-2.70;99.90;;;;;;4996667;28;20050;-96
2022/01/27 04:18:46;;;;;;;71.80;29.70;;;-2.80;99.90;;;;;;4996693;28;20030;-96
2022/01/27 04:21:14;;;;;;;163.27;58.90;;;-2.70;99.90;;;;;;4996711;28;20046;-96
2022/01/27 04:23:39;;;;;;;166.02;62.75;;;-2.80;99.90;;;;;;4996367;28;20054;-96
2022/01/27 04:26:06;;;;;;;149.93;56.88;;;-2.90;99.90;;;;;;4996630;28;20409;-96
2022/01/27 04:28:34;;;;;;;128.25;50.08;;;-2.80;99.90;;;;;;4997982;28;20049;-96
2022/01/27 04:31:03;;;;;;;103.53;41.65;;;-2.80;99.90;;;;;;5000175;28;20114;-96
2022/01/27 04:33:32;;;;;;;113.72;44.78;;;-2.80;99.90;;;;;;5000243;28;20038;-96
2022/01/27 04:36:00;;;;;;;108.05;43.03;;;-2.80;99.90;;;;;;5000032;28;20026;-96
2022/01/27 04:38:47;;;;;;;93.32;37.60;;;-2.90;99.90;;;;;;5000067;28;20563;-96
2022/01/27 04:43:46;;;;;;;138.88;52.00;;;-2.90;99.90;;;;;;5017814;28;20037;-96
2022/01/27 04:46:22;;;;;;;114.95;46.30;;;-3.00;99.90;;;;;;4999864;28;20538;-96
2022/01/27 04:48:52;;;;;;;117.72;47.65;;;-3.00;99.90;;;;;;5000572;28;20018;-96
2022/01/27 04:51:21;;;;;;;99.07;38.78;;;-3.00;99.90;;;;;;4999854;28;20060;-96
2022/01/27 04:56:20;;;;;;;81.15;33.80;;;-3.10;99.90;;;;;;5017003;28;20026;-96
2022/01/27 04:58:49;;;;;;;97.65;39.20;;;-3.10;99.90;;;;;;4999451;28;20121;-96
2022/01/27 05:01:17;;;;;;;63.33;27.98;;;-3.00;99.90;;;;;;4999414;28;20109;-96
2022/01/27 05:03:48;;;;;;;84.53;34.70;;;-3.00;99.90;;;;;;4999603;28;20092;-96
2022/01/27 05:06:14;;;;;;;90.85;39.20;;;-3.10;99.90;;;;;;4999435;28;20030;-96
2022/01/27 05:08:41;;;;;;;85.88;33.95;;;-3.10;99.90;;;;;;4999462;28;20018;-96
2022/01/27 05:11:14;;;;;;;86.85;34.58;;;-3.10;99.90;;;;;;4999751;28;20037;-96
2022/01/27 05:13:47;;;;;;;114.82;45.70;;;-3.10;99.90;;;;;;4999957;28;20030;-96
2022/01/27 05:16:13;;;;;;;98.65;38.88;;;-3.10;99.90;;;;;;4999106;28;20034;-96
2022/01/27 05:18:39;;;;;;;83.00;36.05;;;-3.20;99.90;;;;;;4999566;28;20026;-96
2022/01/27 05:21:04;;;;;;;78.18;33.13;;;-3.10;99.90;;;;;;4998918;28;20144;-96
2022/01/27 05:23:30;;;;;;;81.05;35.45;;;-3.10;99.90;;;;;;4999422;28;20018;-96
2022/01/27 05:25:56;;;;;;;76.55;33.55;;;-3.10;99.90;;;;;;4999113;28;20026;-96
2022/01/27 05:28:22;;;;;;;80.80;34.55;;;-3.00;99.90;;;;;;4999069;28;20033;-96
2022/01/27 05:30:47;;;;;;;76.03;30.58;;;-3.00;99.90;;;;;;4998866;28;20503;-96
2022/01/27 05:33:13;;;;;;;85.32;35.63;;;-3.00;99.90;;;;;;4999503;28;20033;-96
2022/01/27 05:35:39;;;;;;;105.13;41.60;;;-3.00;99.90;;;;;;5001575;28;20414;-96
2022/01/27 05:38:05;;;;;;;113.10;45.53;;;-3.00;99.90;;;;;;4999117;28;20523;-96
2022/01/27 14:59:10;;;;;;;42.15;16.38;;;-1.70;99.90;;;;;;5092506;28;20406;-93
2022/01/27 15:01:37;;;;;;;29.23;14.35;;;-1.70;99.90;;;;;;5090765;28;20024;-93
2022/01/27 15:04:04;;;;;;;39.88;16.45;;;-1.70;99.90;;;;;;5089902;28;20032;-92
2022/01/27 15:06:32;;;;;;;28.90;14.50;;;-1.60;99.90;;;;;;5090992;28;20025;-93
2022/01/27 15:08:58;;;;;;;35.38;15.98;;;-1.60;99.90;;;;;;5091093;28;20359;-94
2022/01/27 15:11:25;;;;;;;32.20;15.38;;;-1.60;99.90;;;;;;5090977;28;20031;-95
2022/01/27 15:19:37;;;;;;;41.78;19.13;;;-1.50;99.90;;;;;;5092690;28;20046;-96
2022/01/27 15:22:07;;;;;;;31.45;15.13;;;-1.50;99.90;;;;;;5091283;28;20022;-95
2022/01/27 15:24:33;;;;;;;34.05;16.40;;;-1.40;99.90;;;;;;5090673;28;20027;-95
2022/01/27 15:27:00;;;;;;;36.33;15.75;;;-1.40;99.90;;;;;;5091081;28;20025;-95
2022/01/27 15:29:26;;;;;;;27.70;15.38;;;-1.30;99.90;;;;;;5091059;28;20032;-94
2022/01/27 15:31:52;;;;;;;28.05;14.52;;;-1.30;99.90;;;;;;5090334;28;20031;-94
2022/01/27 15:34:18;;;;;;;34.13;15.57;;;-1.30;99.90;;;;;;5090620;28;20024;-92
2022/01/27 15:36:45;;;;;;;28.40;14.55;;;-1.30;99.90;;;;;;5090118;28;20024;-92
2022/01/27 15:39:12;;;;;;;26.38;13.60;;;-1.30;99.90;;;;;;5090083;28;20024;-92
2022/01/27 15:41:39;;;;;;;32.17;15.52;;;-1.30;99.90;;;;;;5090255;28;20044;-92
2022/01/27 15:44:04;;;;;;;31.30;15.57;;;-1.30;99.90;;;;;;5089260;28;20078;-93
2022/01/27 15:46:30;;;;;;;27.52;14.45;;;-1.30;99.90;;;;;;5089097;28;20025;-92
2022/01/27 15:48:56;;;;;;;28.77;14.63;;;-1.30;99.90;;;;;;5088696;28;20123;-92
2022/01/27 15:51:47;;;;;;;31.48;14.85;;;-1.20;99.90;;;;;;5090243;28;20028;-92
2022/01/27 15:54:50;;;;;;;27.95;14.43;;;-1.20;99.90;;;;;;5048692;28;20041;-93
2022/01/27 15:57:17;;;;;;;27.13;14.65;;;-1.20;99.90;;;;;;5048490;28;20037;-92
2022/01/27 15:59:47;;;;;;;48.85;23.30;;;-1.20;99.90;;;;;;5049111;28;20056;-92
2022/01/27 16:02:13;;;;;;;45.85;22.23;;;-1.20;99.90;;;;;;5049370;28;20044;-93
2022/01/27 16:04:39;;;;;;;43.67;21.60;;;-1.20;99.90;;;;;;5048656;28;20476;-92
2022/01/27 16:07:05;;;;;;;35.05;17.52;;;-1.20;99.90;;;;;;5048961;28;20114;-92
2022/01/27 16:09:30;;;;;;;41.95;18.73;;;-1.20;99.90;;;;;;5040541;28;20116;-92
2022/01/27 16:11:57;;;;;;;52.17;22.80;;;-1.20;99.90;;;;;;5035509;28;20037;-93
2022/01/27 16:14:23;;;;;;;37.55;19.30;;;-1.20;99.90;;;;;;5035428;28;20463;-93
2022/01/27 16:16:48;;;;;;;35.80;18.20;;;-1.30;99.90;;;;;;5035206;28;20025;-92
2022/01/27 16:19:14;;;;;;;40.97;19.52;;;-1.20;99.90;;;;;;5035183;28;20060;-92
2022/01/27 16:21:40;;;;;;;38.53;18.88;;;-1.20;99.90;;;;;;5035210;28;20022;-93
2022/01/27 16:24:06;;;;;;;41.17;19.65;;;-1.30;99.90;;;;;;5035093;28;20026;-92
2022/01/27 16:26:32;;;;;;;39.33;19.52;;;-1.30;99.90;;;;;;5035026;28;20034;-93
2022/01/27 16:28:58;;;;;;;43.67;20.58;;;-1.30;99.90;;;;;;5035094;28;20049;-92
2022/01/27 16:31:24;;;;;;;38.50;20.85;;;-1.40;99.90;;;;;;5044012;28;20517;-92
2022/01/27 16:33:50;;;;;;;41.58;19.58;;;-1.40;99.90;;;;;;5058385;28;20021;-93
2022/01/27 16:36:25;;;;;;;47.25;26.20;;;-1.40;99.90;;;;;;5058416;28;20024;-93
2022/01/27 16:38:52;;;;;;;55.15;28.92;;;-1.40;99.90;;;;;;5053206;28;20025;-93
2022/01/27 16:41:21;;;;;;;54.63;29.75;;;-1.40;99.90;;;;;;5058611;28;20016;-93
2022/01/27 16:44:42;;;;;;;50.17;29.55;;;-1.40;99.90;;;;;;5058989;28;20036;-93
2022/01/27 16:47:45;;;;;;;52.92;29.15;;;-1.40;99.90;;;;;;5048222;28;20032;-93
2022/01/27 16:50:14;;;;;;;58.42;33.85;;;-1.40;99.90;;;;;;5055689;28;20057;-93
2022/01/27 16:52:40;;;;;;;48.05;24.25;;;-1.40;99.90;;;;;;5058376;28;20025;-93
2022/01/27 16:55:06;;;;;;;47.15;25.55;;;-1.50;99.90;;;;;;5058362;28;20039;-93
2022/01/27 16:57:32;;;;;;;51.28;25.23;;;-1.50;99.90;;;;;;5054791;28;20053;-93
2022/01/27 16:59:58;;;;;;;50.03;24.00;;;-1.50;99.90;;;;;;5038534;28;20493;-93
2022/01/27 17:02:24;;;;;;;47.00;22.73;;;-1.60;99.90;;;;;;5038514;28;20028;-93
2022/01/27 17:04:49;;;;;;;43.03;20.23;;;-1.60;99.90;;;;;;5038372;28;20071;-94
2022/01/27 17:07:16;;;;;;;41.28;18.83;;;-1.50;99.90;;;;;;5038294;28;20032;-93
2022/01/27 17:09:42;;;;;;;38.40;20.20;;;-1.50;99.90;;;;;;5038591;28;20051;-93
2022/01/27 17:12:08;;;;;;;39.03;20.27;;;-1.50;99.90;;;;;;5037958;28;20025;-93
2022/01/27 17:14:34;;;;;;;38.08;19.52;;;-1.50;99.90;;;;;;5038351;28;20104;-93
2022/01/27 17:17:00;;;;;;;46.38;23.30;;;-1.50;99.90;;;;;;5037377;28;20120;-93
2022/01/27 17:19:26;;;;;;;52.78;27.77;;;-1.50;99.90;;;;;;5037698;28;20052;-93
2022/01/27 17:21:59;;;;;;;71.88;36.88;;;-1.60;99.90;;;;;;5036843;28;20021;-93
2022/01/27 17:24:25;;;;;;;48.03;24.02;;;-1.50;99.90;;;;;;5038118;28;20024;-93
2022/01/27 17:26:51;;;;;;;55.53;28.20;;;-1.50;99.90;;;;;;5037902;28;20029;-94
2022/01/27 17:29:17;;;;;;;47.45;23.08;;;-1.50;99.90;;;;;;5038442;28;20025;-93
2022/01/27 17:31:43;;;;;;;52.67;26.95;;;-1.40;99.90;;;;;;5037642;28;20053;-93
2022/01/27 17:34:09;;;;;;;46.40;21.63;;;-1.40;99.90;;;;;;5038214;28;20028;-93
2022/01/27 17:36:35;;;;;;;60.70;30.52;;;-1.40;99.90;;;;;;5037806;28;20021;-93
2022/01/27 17:39:04;;;;;;;49.80;22.85;;;-1.30;99.90;;;;;;5037632;28;20032;-93
2022/01/27 17:41:30;;;;;;;39.58;20.30;;;-1.30;99.90;;;;;;5037683;28;20107;-93
2022/01/27 17:44:10;;;;;;;41.55;21.55;;;-1.30;99.90;;;;;;5037278;28;20048;-94
2022/01/27 17:46:45;;;;;;;48.40;23.02;;;-1.30;99.90;;;;;;5038257;28;20024;-93
2022/01/27 17:49:13;;;;;;;43.05;20.38;;;-1.30;99.90;;;;;;5037499;28;20029;-94
2022/01/27 17:51:39;;;;;;;38.10;19.92;;;-1.20;99.90;;;;;;5037594;28;20111;-93
2022/01/27 17:54:09;;;;;;;40.40;20.02;;;-1.20;99.90;;;;;;5037563;28;20116;-92
2022/01/27 17:56:39;;;;;;;37.60;20.23;;;-1.20;99.90;;;;;;5038076;28;20100;-96
2022/01/27 17:59:05;;;;;;;36.90;19.17;;;-1.20;99.90;;;;;;5069717;28;20056;-96
2022/01/27 18:01:32;;;;;;;43.03;22.48;;;-1.20;99.90;;;;;;5074084;28;20124;-96
2022/01/27 18:03:58;;;;;;;36.55;19.08;;;-1.20;99.90;;;;;;5074521;28;20025;-96
2022/01/27 18:06:26;;;;;;;40.08;21.02;;;-1.10;99.90;;;;;;5073736;28;20028;-96
2022/01/27 18:08:53;;;;;;;39.60;20.92;;;-1.20;99.90;;;;;;5073832;28;20111;-95
2022/01/27 18:11:24;;;;;;;40.65;19.98;;;-1.20;99.90;;;;;;5074542;28;20025;-95
2022/01/27 18:13:51;;;;;;;35.60;19.20;;;-1.20;99.90;;;;;;5073690;28;20497;-95
2022/01/27 18:16:18;;;;;;;42.13;21.13;;;-1.20;99.90;;;;;;5073793;28;20024;-96
2022/01/27 18:18:43;;;;;;;39.78;20.45;;;-1.20;99.90;;;;;;5073837;28;20112;-96
2022/01/27 18:21:09;;;;;;;40.45;19.52;;;-1.20;99.90;;;;;;5073670;28;20052;-95
2022/01/27 18:23:35;;;;;;;43.53;21.00;;;-1.20;99.90;;;;;;5073636;28;20457;-95
2022/01/27 18:26:01;;;;;;;42.60;20.42;;;-1.20;99.90;;;;;;5073386;28;20025;-96
2022/01/27 18:28:27;;;;;;;43.58;19.90;;;-1.20;99.90;;;;;;5073503;28;20031;-96
2022/01/27 18:30:53;;;;;;;48.75;20.17;;;-1.20;99.90;;;;;;5073746;28;20028;-96
2022/01/27 18:33:22;;;;;;;44.05;20.67;;;-1.20;99.90;;;;;;5074395;28;20031;-96
2022/01/27 18:35:48;;;;;;;42.85;20.05;;;-1.10;99.90;;;;;;5074372;28;20021;-96
2022/01/27 18:38:13;;;;;;;38.40;19.30;;;-1.10;99.90;;;;;;5073590;28;20050;-96
2022/01/27 18:40:40;;;;;;;44.60;20.58;;;-1.10;99.90;;;;;;5073201;28;20351;-96
2022/01/27 18:43:11;;;;;;;42.33;21.25;;;-1.10;99.90;;;;;;5073542;28;20029;-96
2022/01/27 18:45:38;;;;;;;42.92;19.45;;;-1.10;99.90;;;;;;5073235;28;20020;-96
2022/01/27 18:48:10;;;;;;;39.08;20.02;;;-1.10;99.90;;;;;;5073455;28;20090;-96
2022/01/27 18:50:39;;;;;;;40.45;20.17;;;-1.00;99.90;;;;;;5075180;28;20035;-96
2022/01/27 18:53:05;;;;;;;50.70;22.88;;;-1.00;99.90;;;;;;5078128;28;20033;-96
2022/01/27 18:55:44;;;;;;;45.78;21.25;;;-1.00;99.90;;;;;;5080480;28;20019;-96
2022/01/27 18:58:10;;;;;;;43.90;21.33;;;-1.00;99.90;;;;;;5083433;28;20049;-96
2022/01/27 19:00:37;;;;;;;52.72;24.58;;;-1.00;99.90;;;;;;5083251;28;20064;-96
2022/01/27 19:03:04;;;;;;;44.97;22.55;;;-1.00;99.90;;;;;;5079850;28;20028;-96
2022/01/27 19:05:42;;;;;;;50.83;22.60;;;-1.00;99.90;;;;;;5076832;28;20107;-96
2022/01/27 19:08:12;;;;;;;47.03;22.13;;;-1.00;99.90;;;;;;5076779;28;20028;-96
2022/01/27 19:10:40;;;;;;;47.80;23.23;;;-1.00;99.90;;;;;;5077188;28;20050;-96
2022/01/27 19:13:07;;;;;;;43.42;22.98;;;-1.00;99.90;;;;;;5079478;28;20126;-96
2022/01/27 19:15:36;;;;;;;52.15;23.73;;;-1.00;99.90;;;;;;5075569;28;20028;-96
2022/01/27 19:18:09;;;;;;;46.43;22.43;;;-1.00;99.90;;;;;;5079263;28;20021;-96
2022/01/27 19:20:38;;;;;;;49.88;22.27;;;-0.90;99.90;;;;;;5082623;28;20064;-96
2022/01/27 19:23:08;;;;;;;47.05;21.05;;;-1.00;99.90;;;;;;5075819;28;20024;-96
2022/01/27 19:25:37;;;;;;;47.70;22.67;;;-0.90;99.90;;;;;;5078463;28;20059;-96
2022/01/27 19:28:03;;;;;;;45.58;21.85;;;-0.90;99.90;;;;;;5077725;28;20261;-96
2022/01/27 19:30:30;;;;;;;43.28;20.85;;;-0.90;99.90;;;;;;5083074;28;20093;-96
2022/01/27 19:33:00;;;;;;;45.38;20.85;;;-0.90;99.90;;;;;;5078940;28;20486;-96
2022/01/27 19:35:29;;;;;;;48.45;22.42;;;-0.80;99.90;;;;;;5086775;28;20103;-95
2022/01/27 19:38:02;;;;;;;42.17;21.10;;;-0.80;99.90;;;;;;5076119;28;20032;-96
2022/01/27 19:40:32;;;;;;;44.35;22.08;;;-0.80;99.90;;;;;;5082033;28;20021;-96
2022/01/27 19:43:00;;;;;;;;;;;-0.80;99.90;;;;;;5085623;28;20034;-96
2022/01/27 19:45:27;;;;;;;52.90;22.38;;;-0.80;99.90;;;;;;5085942;28;19936;-96
2022/01/27 19:48:05;;;;;;;42.65;21.83;;;-0.90;99.90;;;;;;5085173;28;20028;-96
2022/01/27 19:50:39;;;;;;;44.38;22.17;;;-0.80;99.90;;;;;;5066865;28;20028;-96
2022/01/27 19:53:10;;;;;;;48.53;23.15;;;-0.90;99.90;;;;;;5087414;28;20040;-96
2022/01/27 19:55:36;;;;;;;44.22;21.38;;;-0.90;99.90;;;;;;5087326;28;20029;-96
2022/01/27 19:58:03;;;;;;;47.53;22.27;;;-0.90;99.90;;;;;;5085184;28;20044;-95
2022/01/27 20:00:30;;;;;;;52.15;24.35;;;-0.90;99.90;;;;;;5077288;28;20029;-96
2022/01/27 20:02:59;;;;;;;47.75;22.23;;;-0.80;99.90;;;;;;5077548;28;20024;-96
2022/01/27 20:05:27;;;;;;;63.88;27.75;;;-0.80;99.90;;;;;;5082208;28;20107;-96
2022/01/27 20:08:08;;;;;;;80.35;31.90;;;-0.90;99.90;;;;;;5086562;28;20029;-96
2022/01/27 20:10:38;;;;;;;50.90;24.05;;;-0.80;99.90;;;;;;5087164;28;20029;-96
2022/01/27 20:13:10;;;;;;;54.22;23.75;;;-0.80;99.90;;;;;;5084139;28;20031;-96
2022/01/27 20:15:41;;;;;;;49.33;22.60;;;-0.80;99.90;;;;;;5079249;28;20479;-96
2022/01/27 20:18:11;;;;;;;51.53;24.33;;;-0.80;99.90;;;;;;5081200;28;20026;-96
2022/01/27 20:20:38;;;;;;;52.65;23.30;;;-0.70;99.90;;;;;;5081687;28;20033;-96
2022/01/27 20:23:09;;;;;;;49.70;22.80;;;-0.70;99.90;;;;;;5082396;28;20047;-96
2022/01/27 20:25:37;;;;;;;51.17;23.45;;;-0.70;99.90;;;;;;5083920;28;20470;-96
2022/01/27 20:28:03;;;;;;;46.55;22.58;;;-0.80;99.90;;;;;;5081803;28;20027;-96
2022/01/27 20:30:30;;;;;;;50.80;22.10;;;-0.70;99.90;;;;;;5084171;28;20058;-96
2022/01/27 20:33:00;;;;;;;53.75;24.33;;;-0.70;99.90;;;;;;5084035;28;20020;-96
2022/01/27 20:35:34;;;;;;;50.83;23.13;;;-0.70;99.90;;;;;;5079689;28;20028;-96
2022/01/27 20:38:00;;;;;;;51.35;23.60;;;-0.70;99.90;;;;;;5083288;28;20032;-96
2022/01/27 20:40:27;;;;;;;53.60;23.58;;;-0.60;99.90;;;;;;5083591;28;20025;-96
2022/01/27 20:42:54;;;;;;;56.75;25.08;;;-0.60;99.90;;;;;;5085050;28;20489;-96
2022/01/27 20:45:20;;;;;;;55.90;25.35;;;-0.60;99.90;;;;;;5084954;28;20028;-96
2022/01/27 20:47:48;;;;;;;46.50;22.77;;;-0.60;99.90;;;;;;5085849;28;20039;-96
2022/01/27 20:50:15;;;;;;;57.10;25.23;;;-0.60;99.90;;;;;;5085864;28;20024;-96
2022/01/27 20:52:46;;;;;;;70.70;30.83;;;-0.60;99.90;;;;;;5086642;28;20058;-96
2022/01/27 20:55:12;;;;;;;67.85;31.52;;;-0.60;99.90;;;;;;5087305;28;20043;-96
2022/01/27 20:57:42;;;;;;;76.68;33.92;;;-0.60;99.90;;;;;;5085678;28;20132;-96
2022/01/27 21:00:13;;;;;;;69.80;30.85;;;-0.60;99.90;;;;;;5084539;28;20048;-96
2022/01/27 21:02:42;;;;;;;58.90;27.60;;;-0.60;99.90;;;;;;5082889;28;20048;-96
2022/01/27 21:05:15;;;;;;;58.03;26.05;;;-0.60;99.90;;;;;;5086247;28;20020;-96
2022/01/27 21:07:42;;;;;;;57.25;25.85;;;-0.60;99.90;;;;;;5087068;28;20107;-96
2022/01/27 21:10:14;;;;;;;60.33;28.48;;;-0.50;99.90;;;;;;5086140;28;20052;-96
2022/01/27 21:12:41;;;;;;;65.97;31.95;;;-0.50;99.90;;;;;;5083594;28;20024;-96
2022/01/27 21:15:08;;;;;;;62.42;28.67;;;-0.60;99.90;;;;;;5087786;28;20115;-96
2022/01/27 21:17:38;;;;;;;80.15;36.97;;;-0.60;99.90;;;;;;5087488;28;20024;-96
2022/01/27 21:20:05;;;;;;;;;;;-0.60;99.90;;;;;;5054719;28;20017;-96
2022/01/27 21:22:35;;;;;;;76.35;33.72;;;-0.60;99.90;;;;;;5086209;28;19972;-96
2022/01/27 21:25:01;;;;;;;77.25;33.15;;;-0.60;99.90;;;;;;5068664;28;20036;-96
2022/01/27 21:27:30;;;;;;;67.95;29.48;;;-0.60;99.90;;;;;;5086889;28;20017;-96
2022/01/27 21:30:03;;;;;;;67.85;30.50;;;-0.60;99.90;;;;;;5086666;28;20090;-96
2022/01/27 21:32:30;;;;;;;59.60;28.35;;;-0.60;99.90;;;;;;5084891;28;20065;-96
2022/01/27 21:34:59;;;;;;;59.70;26.67;;;-0.60;99.90;;;;;;5081946;28;20039;-96
2022/01/27 21:37:31;;;;;;;63.72;28.48;;;-0.60;99.90;;;;;;5084948;28;20037;-96
2022/01/27 21:39:58;;;;;;;62.40;26.63;;;-0.50;99.90;;;;;;5084552;28;20020;-96
2022/01/27 21:42:25;;;;;;;63.20;27.27;;;-0.60;99.90;;;;;;5083199;28;20037;-96
2022/01/27 21:44:51;;;;;;;67.00;27.38;;;-0.60;99.90;;;;;;5080003;28;20078;-96
2022/01/27 21:47:20;;;;;;;61.38;26.60;;;-0.60;99.90;;;;;;5083211;28;20024;-96
2022/01/27 21:49:46;;;;;;;60.13;27.10;;;-0.60;99.90;;;;;;5080553;28;20024;-96
2022/01/27 21:52:15;;;;;;;59.55;25.88;;;-0.60;99.90;;;;;;5084924;28;20029;-96
2022/01/27 21:54:57;;;;;;;;;;;;;;;;;;;;;
2022/01/27 21:57:23;;;;;;;59.88;27.15;;;-0.50;99.90;;;;;;5084087;28;20088;-96
2022/01/27 21:59:49;;;;;;;66.22;30.65;;;-0.50;99.90;;;;;;5068238;28;20020;-96
2022/01/27 22:02:22;;;;;;;61.55;28.73;;;-0.50;99.90;;;;;;5066037;28;20036;-96
2022/01/27 22:04:49;;;;;;;73.75;32.55;;;-0.50;99.90;;;;;;5067475;28;20108;-96
2022/01/27 22:07:16;;;;;;;64.05;28.02;;;-0.50;99.90;;;;;;5065169;28;20463;-96
2022/01/27 22:09:45;;;;;;;69.78;30.95;;;-0.50;99.90;;;;;;5068970;28;20131;-96
2022/01/27 22:12:11;;;;;;;76.10;33.22;;;-0.50;99.90;;;;;;5048568;28;20036;-96
2022/01/27 22:14:36;;;;;;;65.97;28.80;;;-0.40;99.90;;;;;;5067034;28;20029;-96
2022/01/27 22:17:04;;;;;;;62.55;27.45;;;-0.50;99.90;;;;;;5083842;28;20028;-96
2022/01/27 22:19:31;;;;;;;58.75;26.23;;;-0.40;99.90;;;;;;5066275;28;20041;-96
2022/01/27 22:21:57;;;;;;;59.17;26.30;;;-0.40;99.90;;;;;;5066133;28;20055;-96
2022/01/27 22:24:31;;;;;;;56.38;24.35;;;-0.40;99.90;;;;;;5072108;28;20027;-96
2022/01/27 22:27:00;;;;;;;63.08;26.17;;;-0.40;99.90;;;;;;5066183;28;20467;-96
2022/01/27 22:29:26;;;;;;;60.10;27.20;;;-0.40;99.90;;;;;;5068196;28;20028;-96
2022/01/27 22:31:57;;;;;;;58.35;26.33;;;-0.40;99.90;;;;;;5067806;28;20033;-96
2022/01/27 22:34:30;;;;;;;58.92;26.35;;;-0.30;99.90;;;;;;5083143;28;20043;-96
2022/01/27 22:37:02;;;;;;;61.10;26.73;;;-0.30;99.90;;;;;;5070096;28;20024;-96
2022/01/27 22:39:28;;;;;;;56.05;25.55;;;-0.30;99.90;;;;;;5052031;28;20054;-96
2022/01/27 22:42:12;;;;;;;54.47;25.65;;;-0.30;99.90;;;;;;5067892;28;20016;-96
2022/01/27 22:44:44;;;;;;;58.85;25.50;;;-0.30;99.90;;;;;;5069886;28;20467;-96